1938 Tropical Cyclone NOT_NAMED (1938017S20160)


IBTrACS version v04r00. Visit IBTrACS website for data access.
Please direct all questions to the IBTrACS Q and A forum

Storm track - Intensity - Wind Radii - Intensity Data - Source Data - All data

Summary Information

Storm ID 1938017S20160
Start Jan 16 23Z
Landfall Jan 18 21Z, Jan 19 03Z
Max Intensity 45 kt (Jan 19 00Z), 992 mb (Jan 18 23Z)
End Jan 22 12Z
ATCF IDs
Track status Best track data.

Storm track plot

Map of storm track

Intensity plots

Map of storm track

Radial wind information

No radial wind information for this storm


Position and Intensity Table

BASIN ISO_TIME_________ NATURE LAT LON WMO PRES BOM PRES DS824 WIND DS824 PRES
degrees north degrees east mb mb kts mb
SP 1938-01-16 23:00:00 NR -19.65 160.45
SP 1938-01-17 00:00:00 TS -19.75 160.38
SP 03:00:00 TS -20.06 160.06
SP 06:00:00 TS -20.37 159.73
SP 09:00:00 TS -20.68 159.39
SP 11:00:00 TS -20.89 159.14
SP 12:00:00 TS -21.00 159.01
SP 15:00:00 TS -21.33 158.60
SP 18:00:00 TS -21.67 158.16
SP 21:00:00 TS -22.02 157.67
SP 23:00:00 TS -22.26 157.33
SP 1938-01-18 00:00:00 TS -22.38 157.15
SP 03:00:00 TS -22.76 156.60
SP 06:00:00 TS -23.15 156.02
SP 09:00:00 TS -23.52 155.41
SP 11:00:00 TS -23.77 155.00
SP 12:00:00 TS -23.88 154.79
SP 15:00:00 TS -24.22 154.17
SP 18:00:00 TS -24.52 153.58
SP 21:00:00 TS -24.78 153.08
SP 23:00:00 TS -24.91 152.80 992 992
SP 1938-01-19 00:00:00 TS -24.97 152.68 45 992
SP 03:00:00 TS -25.11 152.41
SP 05:00:00 TS -25.19 152.27
SP 06:00:00 TS -25.23 152.20
SP 09:00:00 TS -25.35 151.98
SP 11:00:00 TS -25.44 151.85
SP 12:00:00 TS -25.48 151.78
SP 15:00:00 TS -25.62 151.58
SP 18:00:00 TS -25.77 151.41
SP 21:00:00 TS -25.94 151.28
SP 23:00:00 TS -26.06 151.21
SP 1938-01-20 00:00:00 TS -26.12 151.18
SP 03:00:00 TS -26.30 151.10
SP 06:00:00 TS -26.49 151.06
SP 09:00:00 TS -26.68 151.04
SP 11:00:00 TS -26.63 151.01
SP 12:00:00 TS -26.47 150.94
SP 15:00:00 TS -26.34 150.78
SP 18:00:00 TS -26.16 150.54
SP 21:00:00 TS -26.35 150.51
SP 23:00:00 TS -26.51 150.54
SP 1938-01-21 00:00:00 TS -26.59 150.56
SP 03:00:00 TS -26.89 150.67
SP 06:00:00 TS -27.24 150.85
SP 09:00:00 TS -27.63 151.10
SP 11:00:00 TS -27.91 151.31
SP 12:00:00 TS -28.06 151.43
SP 15:00:00 TS -28.51 151.82
SP 18:00:00 TS -28.99 152.28
SP 21:00:00 TS -29.48 152.81
SP 23:00:00 TS -29.82 153.20
SP 1938-01-22 00:00:00 TS -29.98 153.40
SP 03:00:00 TS -30.49 154.06
SP 06:00:00 TS -30.99 154.78
SP 09:00:00 TS -31.50 155.53
SP 12:00:00 TS -32.00 156.30

Source Information

Agency Information
USA
TOKYO
CMA
HKO
NEWDELHI
REUNION
BOM IDCKMSTM0S.csv:Line=941:unnamed
NADI
WELLINGTON
DS824 aus_area.dat:92:NOT NAMED
TD9636 cons_worldwide_trop_cyclone_18710101-19891231-006:Line=2157
TD9635
NEUMANN
MLC

All available IBTrACS Data

SEASON BASIN SUBBASIN ISO_TIME_________ NATURE LAT LON WMO PRES WMO AGENCY DIST2LAND LANDFALL IFLAG USA SSHS BOM LAT BOM LON BOM PRES BOM PRES_METHOD DS824 LAT DS824 LON DS824 STAGE DS824 WIND DS824 PRES TD9636 LAT TD9636 LON TD9636 STAGE STORM SPEED STORM DIR
Year degrees north degrees east mb km km 1 degrees north degrees east mb degrees north degrees east kts mb degrees north degrees east kts degrees
1938 SP MM 1938-01-16 23:00:00 NR -19.65 160.45 bom 374 371 ______O___O___ -1 -19.60 160.60 -19.70 160.30 7 7 215
1938 SP MM 1938-01-17 00:00:00 TS -19.75 160.38 382 380 ______P__OP___ -1 -19.69 160.50 -19.70 160.50 TC -19.83 160.19 7 8 222
1938 SP MM 03:00:00 TS -20.06 160.06 407 407 ______P__PP___ -1 -19.97 160.19 -19.98 160.17 TC -20.21 159.86 7 9 224
1938 SP EA 06:00:00 TS -20.37 159.73 448 448 ______P__PP___ -1 -20.24 159.86 -20.26 159.83 TC -20.58 159.51 7 9 226
1938 SP EA 09:00:00 TS -20.68 159.39 481 481 ______P__PP___ -1 -20.53 159.52 -20.55 159.48 TC -20.96 159.15 7 9 227
1938 SP EA 11:00:00 TS -20.89 159.14 514 514 ______P__PO___ -1 -20.73 159.28 -20.74 159.23 TC -21.20 158.90 7 10 228
1938 SP EA 12:00:00 TS -21.00 159.01 526 526 ______P__PP___ -1 -20.83 159.15 -20.85 159.10 TC -21.32 158.77 7 10 229
1938 SP EA 15:00:00 TS -21.33 158.60 572 572 ______P__PP___ -1 -21.15 158.74 -21.16 158.70 TC -21.68 158.36 7 10 230
1938 SP EA 18:00:00 TS -21.67 158.16 608 547 ______P__PP___ -1 -21.48 158.29 -21.48 158.25 TC -22.03 157.94 7 11 231
1938 SP EA 21:00:00 TS -22.02 157.67 547 508 ______P__PP___ -1 -21.84 157.78 -21.83 157.75 TC -22.37 157.50 7 12 232
1938 SP EA 23:00:00 TS -22.26 157.33 bom 494 479 ______O__PO___ -1 -22.10 157.40 -22.07 157.39 TC -22.60 157.20 7 12 233
1938 SP EA 1938-01-18 00:00:00 TS -22.38 157.15 479 409 ______P__OP___ -1 -22.23 157.20 -22.20 157.20 TC -22.71 157.06 7 13 233
1938 SP EA 03:00:00 TS -22.76 156.60 403 341 ______P__PP___ -1 -22.64 156.57 -22.59 156.59 TC -23.05 156.65 7 13 234
1938 SP EA 06:00:00 TS -23.15 156.02 333 257 ______P__PP___ -1 -23.06 155.90 -23.00 155.94 TC -23.38 156.22 7 13 235
1938 SP EA 09:00:00 TS -23.52 155.41 257 211 ______P__PP___ -1 -23.48 155.22 -23.40 155.27 TC -23.70 155.75 7 13 236
1938 SP EA 11:00:00 TS -23.77 155.00 205 182 ______P__PO___ -1 -23.74 154.78 -23.66 154.84 TC -23.90 155.40 7 13 237
1938 SP EA 12:00:00 TS -23.88 154.79 182 113 ______P__PP___ -1 -23.87 154.56 -23.78 154.62 TC -24.00 155.20 7 13 239
1938 SP EA 15:00:00 TS -24.22 154.17 113 45 ______P__PP___ -1 -24.22 153.95 -24.14 154.01 TC -24.30 154.54 7 13 240
1938 SP EA 18:00:00 TS -24.52 153.58 45 0 ______P__PP___ -1 -24.53 153.42 -24.45 153.47 TC -24.58 153.86 7 11 241
1938 SP EA 21:00:00 TS -24.78 153.08 0 0 ______P__PP___ -1 -24.78 153.00 -24.71 153.02 TC -24.84 153.20 7 10 241
1938 SP EA 23:00:00 TS -24.91 152.80 992 bom 30 20 ______O__PO___ -1 -24.90 152.80 992 4 -24.84 152.79 TC -25.00 152.80 7 8 241
1938 SP EA 1938-01-19 00:00:00 TS -24.97 152.68 20 0 ______P__OP___ -1 -24.95 152.73 -24.90 152.70 TC 45 992 -25.07 152.62 7 6 241
1938 SP EA 03:00:00 TS -25.11 152.41 0 0 ______P__PP___ -1 -25.05 152.58 -25.02 152.52 TC -25.27 152.14 7 5 240
1938 SP EA 05:00:00 TS -25.19 152.27 bom 0 0 ______O__PP___ -1 -25.10 152.50 -25.07 152.44 TC -25.39 151.86 7 5 239
1938 SP EA 06:00:00 TS -25.23 152.20 0 0 ______P__OP___ -1 -25.13 152.45 -25.10 152.40 TC -25.45 151.74 7 5 237
1938 SP EA 09:00:00 TS -25.35 151.98 0 0 ______P__PP___ -1 -25.22 152.30 -25.19 152.26 TC -25.65 151.39 7 4 236
1938 SP EA 11:00:00 TS -25.44 151.85 0 0 ______P__PO___ -1 -25.27 152.20 -25.24 152.16 TC -25.80 151.20 7 4 234
1938 SP EA 12:00:00 TS -25.48 151.78 0 0 ______P__PP___ -1 -25.30 152.15 -25.27 152.12 TC -25.88 151.08 7 5 233
1938 SP EA 15:00:00 TS -25.62 151.58 0 0 ______P__PP___ -1 -25.38 152.00 -25.35 151.98 TC -26.14 150.77 7 4 229
1938 SP EA 18:00:00 TS -25.77 151.41 0 0 ______P__PP___ -1 -25.46 151.85 -25.43 151.85 TC -26.43 150.53 7 4 221
1938 SP EA 21:00:00 TS -25.94 151.28 0 0 ______P__PP___ -1 -25.54 151.70 -25.51 151.73 TC -26.76 150.41 7 4 212
1938 SP EA 23:00:00 TS -26.06 151.21 bom 0 0 ______O__PO___ -1 -25.60 151.60 -25.57 151.64 TC -27.00 150.40 7 4 204
1938 SP EA 1938-01-20 00:00:00 TS -26.12 151.18 0 0 ______P__OP___ -1 -25.62 151.53 -25.60 151.60 TC -27.13 150.42 7 4 203
1938 SP EA 03:00:00 TS -26.30 151.10 0 0 ______P__PP___ -1 -25.68 151.32 -25.67 151.41 TC -27.53 150.60 7 4 197
1938 SP EA 06:00:00 TS -26.49 151.06 0 0 ______P__PP___ -1 -25.73 151.10 -25.73 151.20 TC -27.96 150.88 7 4 189
1938 SP EA 09:00:00 TS -26.68 151.04 0 0 ______P__PP___ -1 -25.80 150.90 -25.81 151.01 TC -28.40 151.24 7 2 197
1938 SP EA 11:00:00 TS -26.63 151.01 0 0 ______P__PO___ -1 -25.86 150.77 -25.86 150.88 TC -28.70 151.50 7 5 338
1938 SP EA 12:00:00 TS -26.47 150.94 0 0 ______P__P____ -1 -25.89 150.72 -25.90 150.83 TC 7 5 325
1938 SP EA 15:00:00 TS -26.34 150.78 0 0 ______P__P____ -1 -26.00 150.58 -26.01 150.68 TC 7 5 311
1938 SP EA 18:00:00 TS -26.16 150.54 0 0 ______P__P____ -1 -26.15 150.49 -26.16 150.59 TC 7 2 269
1938 SP EA 21:00:00 TS -26.35 150.51 0 0 ______P__P____ -1 -26.34 150.47 -26.36 150.55 TC 7 4 0
1938 SP EA 23:00:00 TS -26.51 150.54 bom 0 0 ______O__P____ -1 -26.50 150.50 -26.51 150.58 TC 5 173
1938 SP EA 1938-01-21 00:00:00 TS -26.59 150.56 0 0 ______P__O____ -1 -26.59 150.52 -26.60 150.60 TC 6 163
1938 SP EA 03:00:00 TS -26.89 150.67 0 0 ______P__P____ -1 -26.89 150.64 -26.90 150.70 TC 7 158
1938 SP EA 06:00:00 TS -27.24 150.85 0 0 ______P__P____ -1 -27.24 150.83 -27.25 150.88 TC 8 152
1938 SP EA 09:00:00 TS -27.63 151.10 0 0 ______P__P____ -1 -27.63 151.08 -27.64 151.12 TC 9 149
1938 SP EA 11:00:00 TS -27.91 151.31 0 0 ______P__P____ -1 -27.90 151.30 -27.92 151.33 TC 10 146
1938 SP EA 12:00:00 TS -28.06 151.43 0 0 ______P__P____ -1 -28.05 151.41 -28.07 151.44 TC 11 143
1938 SP EA 15:00:00 TS -28.51 151.82 0 0 ______P__P____ -1 -28.50 151.81 -28.53 151.83 TC 12 141
1938 SP EA 18:00:00 TS -28.99 152.28 0 0 ______P__P____ -1 -28.98 152.27 -29.01 152.28 TC 13 138
1938 SP EA 21:00:00 TS -29.48 152.81 0 0 ______P__P____ -1 -29.47 152.81 -29.50 152.81 TC 14 136
1938 SP EA 23:00:00 TS -29.82 153.20 bom 0 0 ______O__P____ -1 -29.80 153.20 -29.83 153.19 TC 14 134
1938 SP EA 1938-01-22 00:00:00 TS -29.98 153.40 14 14 ______P__O____ -1 -29.97 153.41 -30.00 153.40 TC 15 132
1938 SP EA 03:00:00 TS -30.49 154.06 97 97 ______P__P____ -1 -30.47 154.07 -30.50 154.06 TC 16 131
1938 SP EA 06:00:00 TS -30.99 154.78 162 162 ______P__P____ -1 -30.98 154.78 -31.00 154.77 TC 16 129
1938 SP EA 09:00:00 TS -31.50 155.53 231 231 ______P__P____ -1 -31.49 155.53 -31.50 155.52 TC 16 128
1938 SP EA 12:00:00 TS -32.00 156.30 bom 318 ______O__O____ -1 -32.00 156.30 -32.00 156.30 TC 17 127